Time;durP1;ratioP1;P1;durP2;ratioP2;P2;SDS_P1;SDS_P2;PMS_P1;PMS_P2;Temp;Humidity;BMP_temperature;BMP_pressure;BME280_temperature;BME280_humidity;BME280_pressure;Samples;Min_cycle;Max_cycle;Signal;HPM_P1;HPM_P2
2022/09/10 00:00:46;;;;;;;17.10;10.63;;;;;;;;;;5103324;28;20024;-73
2022/09/10 00:03:12;;;;;;;14.88;9.57;;;;;;;;;;5092263;28;20459;-73
2022/09/10 00:05:42;;;;;;;19.90;10.30;;;;;;;;;;5074080;28;20073;-72
2022/09/10 00:08:08;;;;;;;17.75;9.38;;;;;;;;;;5092298;28;20020;-72
2022/09/10 00:10:38;;;;;;;16.75;10.07;;;;;;;;;;5091724;28;20055;-72
2022/09/10 00:13:05;;;;;;;14.65;10.00;;;;;;;;;;5091927;28;20028;-72
2022/09/10 00:15:31;;;;;;;17.58;9.48;;;;;;;;;;5105912;28;20047;-72
2022/09/10 00:17:57;;;;;;;21.30;10.50;;;;;;;;;;5112301;28;20027;-72
2022/09/10 00:20:23;;;;;;;20.27;10.85;;;;;;;;;;5082241;28;20051;-71
2022/09/10 00:22:49;;;;;;;26.83;18.88;;;;;;;;;;5090272;28;20081;-72
2022/09/10 00:25:15;;;;;;;17.38;11.77;;;;;;;;;;5091745;28;20052;-73
2022/09/10 00:27:41;;;;;;;17.35;10.82;;;;;;;;;;5091417;28;20024;-72
2022/09/10 00:30:08;;;;;;;13.38;9.35;;;;;;;;;;5091661;28;20368;-73
2022/09/10 00:32:34;;;;;;;17.38;10.75;;;;;;;;;;5091894;28;20020;-73
2022/09/10 00:35:00;;;;;;;18.23;9.93;;;;;;;;;;5091214;28;20823;-72
2022/09/10 00:37:26;;;;;;;18.67;10.68;;;;;;;;;;5107514;28;20376;-72
2022/09/10 00:39:52;;;;;;;25.88;11.20;;;;;;;;;;5091781;28;20136;-73
2022/09/10 00:42:18;;;;;;;21.75;9.93;;;;;;;;;;5114607;28;20024;-74
2022/09/10 00:44:44;;;;;;;19.77;10.27;;;;;;;;;;5091554;28;20020;-73
2022/09/10 00:47:23;;;;;;;19.30;9.23;;;;;;;;;;5091735;28;20104;-73
2022/09/10 00:49:51;;;;;;;15.43;9.48;;;;;;;;;;5091521;28;20130;-73
2022/09/10 00:52:17;;;;;;;18.15;10.75;;;;;;;;;;5091904;28;20140;-73
2022/09/10 00:54:44;;;;;;;19.60;12.20;;;;;;;;;;5107322;28;20093;-74
2022/09/10 00:57:13;;;;;;;20.65;11.95;;;;;;;;;;5091155;28;20124;-73
2022/09/10 00:59:43;;;;;;;15.75;10.15;;;;;;;;;;5091980;28;20032;-73
2022/09/10 01:02:09;;;;;;;20.42;11.35;;;;;;;;;;5068118;28;20031;-73
2022/09/10 01:04:35;;;;;;;22.40;13.48;;;;;;;;;;5073426;28;20051;-73
2022/09/10 01:07:01;;;;;;;18.33;10.90;;;;;;;;;;5073125;28;20043;-74
2022/09/10 01:09:28;;;;;;;18.13;10.82;;;;;;;;;;5091646;28;20020;-74
2022/09/10 01:12:09;;;;;;;17.02;10.27;;;;;;;;;;5090803;28;20020;-73
2022/09/10 01:14:55;;;;;;;19.83;12.85;;;;;;;;;;5100366;28;20039;-74
2022/09/10 01:17:21;;;;;;;18.42;12.65;;;;;;;;;;5075009;28;20028;-73
2022/09/10 01:19:51;;;;;;;24.92;15.48;;;;;;;;;;5091533;28;20031;-72
2022/09/10 01:22:24;;;;;;;21.77;13.30;;;;;;;;;;5091682;28;20111;-72
2022/09/10 01:24:50;;;;;;;18.38;10.82;;;;;;;;;;5084298;28;20020;-73
2022/09/10 01:27:34;;;;;;;20.95;11.88;;;;;;;;;;5106708;28;20016;-74
2022/09/10 01:30:07;;;;;;;24.13;11.10;;;;;;;;;;5090917;28;20028;-74
2022/09/10 01:32:36;;;;;;;16.75;11.32;;;;;;;;;;5090039;28;20031;-74
2022/09/10 01:35:13;;;;;;;18.02;10.73;;;;;;;;;;5091496;28;20031;-73
2022/09/10 01:37:42;;;;;;;19.73;10.02;;;;;;;;;;5096966;28;20032;-73
2022/09/10 01:40:09;;;;;;;17.55;9.23;;;;;;;;;;5090599;28;20040;-73
2022/09/10 01:42:37;;;;;;;19.10;9.77;;;;;;;;;;5102915;28;20020;-74
2022/09/10 01:45:03;;;;;;;17.15;9.38;;;;;;;;;;5075892;28;20024;-73
2022/09/10 01:47:44;;;;;;;19.42;8.70;;;;;;;;;;5101226;28;20016;-74
2022/09/10 01:50:13;;;;;;;13.45;8.25;;;;;;;;;;5093703;28;20043;-74
2022/09/10 01:52:50;;;;;;;19.40;9.45;;;;;;;;;;5091020;28;20016;-73
2022/09/10 01:55:34;;;;;;;21.95;8.65;;;;;;;;;;5106875;28;20111;-74
2022/09/10 01:58:16;;;;;;;16.42;7.95;;;;;;;;;;5090254;28;20032;-73
2022/09/10 02:00:45;;;;;;;21.23;10.05;;;;;;;;;;5090073;28;20480;-73
2022/09/10 02:03:16;;;;;;;20.77;9.18;;;;;;;;;;5090908;28;20020;-73
2022/09/10 02:05:43;;;;;;;18.63;9.40;;;;;;;;;;5090649;28;20012;-73
2022/09/10 02:08:11;;;;;;;19.00;9.00;;;;;;;;;;5091187;28;20051;-73
2022/09/10 02:10:49;;;;;;;18.30;9.00;;;;;;;;;;5091151;28;20035;-73
2022/09/10 02:13:15;;;;;;;18.90;9.50;;;;;;;;;;5092640;28;20080;-73
2022/09/10 02:15:41;;;;;;;20.27;9.05;;;;;;;;;;5094132;28;20027;-74
2022/09/10 02:18:07;;;;;;;20.55;9.32;;;;;;;;;;5075753;28;20035;-73
2022/09/10 02:20:33;;;;;;;15.02;9.70;;;;;;;;;;5094306;28;20060;-74
2022/09/10 02:22:59;;;;;;;14.05;8.85;;;;;;;;;;5094834;28;20044;-74
2022/09/10 02:25:30;;;;;;;21.08;9.02;;;;;;;;;;5093302;28;20020;-73
2022/09/10 02:27:56;;;;;;;16.33;8.77;;;;;;;;;;5095835;28;20016;-74
2022/09/10 02:30:23;;;;;;;16.63;8.52;;;;;;;;;;5105895;28;20937;-74
2022/09/10 02:32:49;;;;;;;19.92;9.88;;;;;;;;;;5108501;28;20042;-74
2022/09/10 02:35:15;;;;;;;21.40;9.55;;;;;;;;;;5094190;28;20064;-73
2022/09/10 02:37:42;;;;;;;23.80;8.48;;;;;;;;;;5088663;28;20027;-73
2022/09/10 02:40:10;;;;;;;16.95;10.32;;;;;;;;;;5091694;28;20185;-74
2022/09/10 02:42:37;;;;;;;17.23;9.75;;;;;;;;;;5094129;28;20081;-73
2022/09/10 02:45:03;;;;;;;16.42;10.43;;;;;;;;;;5101918;28;20011;-74
2022/09/10 02:47:29;;;;;;;20.60;11.65;;;;;;;;;;5105075;28;20020;-73
2022/09/10 02:49:55;;;;;;;27.25;13.57;;;;;;;;;;5093623;28;20455;-73
2022/09/10 02:52:21;;;;;;;27.80;12.55;;;;;;;;;;5094168;28;20089;-73
2022/09/10 02:54:49;;;;;;;22.05;12.38;;;;;;;;;;5093104;28;20475;-73
2022/09/10 02:57:15;;;;;;;21.23;11.88;;;;;;;;;;5099908;28;20012;-73
2022/09/10 02:59:41;;;;;;;23.67;13.30;;;;;;;;;;5075275;28;20498;-73
2022/09/10 03:02:08;;;;;;;24.80;12.68;;;;;;;;;;5093528;28;20028;-73
2022/09/10 03:04:34;;;;;;;24.00;13.48;;;;;;;;;;5092975;28;20020;-73
2022/09/10 03:07:00;;;;;;;20.83;12.85;;;;;;;;;;5122576;27;20023;-73
2022/09/10 03:09:27;;;;;;;19.70;10.32;;;;;;;;;;5093334;28;20028;-75
2022/09/10 03:11:53;;;;;;;15.75;11.60;;;;;;;;;;5095709;28;20017;-74
2022/09/10 03:14:22;;;;;;;17.17;10.00;;;;;;;;;;5120472;27;20019;-75
2022/09/10 03:16:48;;;;;;;15.93;9.23;;;;;;;;;;5085149;28;20020;-75
2022/09/10 03:19:15;;;;;;;17.48;10.00;;;;;;;;;;5085654;28;20054;-75
2022/09/10 03:21:41;;;;;;;15.73;8.23;;;;;;;;;;5097173;28;20013;-74
2022/09/10 03:24:09;;;;;;;18.40;8.85;;;;;;;;;;5092363;28;20028;-78
2022/09/10 03:26:35;;;;;;;17.08;9.55;;;;;;;;;;5108855;28;20168;-75
2022/09/10 03:29:02;;;;;;;15.38;9.15;;;;;;;;;;5093531;28;20089;-75
2022/09/10 03:31:28;;;;;;;21.45;11.02;;;;;;;;;;5092467;28;20034;-75
2022/09/10 03:33:56;;;;;;;15.63;8.95;;;;;;;;;;5092407;28;20077;-75
2022/09/10 03:36:22;;;;;;;11.45;9.80;;;;;;;;;;5108538;28;20115;-75
2022/09/10 03:38:48;;;;;;;17.70;10.82;;;;;;;;;;5092457;28;20069;-75
2022/09/10 03:41:14;;;;;;;18.88;10.70;;;;;;;;;;5092718;28;20105;-76
2022/09/10 03:43:40;;;;;;;28.40;10.93;;;;;;;;;;5091858;28;20024;-76
2022/09/10 03:46:06;;;;;;;17.50;9.98;;;;;;;;;;5076618;28;20063;-75
2022/09/10 03:48:33;;;;;;;15.38;9.52;;;;;;;;;;5102922;28;20028;-75
2022/09/10 03:50:59;;;;;;;16.63;10.15;;;;;;;;;;5108201;28;20020;-75
2022/09/10 03:53:25;;;;;;;15.93;9.52;;;;;;;;;;5092770;28;20024;-75
2022/09/10 03:55:55;;;;;;;15.63;9.40;;;;;;;;;;5091832;28;20063;-76
2022/09/10 03:58:21;;;;;;;14.93;9.38;;;;;;;;;;5092463;28;20028;-75
2022/09/10 04:00:50;;;;;;;17.65;9.43;;;;;;;;;;5107281;27;20035;-76
2022/09/10 04:03:16;;;;;;;13.13;9.40;;;;;;;;;;5096613;28;20020;-76
2022/09/10 04:05:42;;;;;;;14.52;10.63;;;;;;;;;;5096726;28;20054;-75
2022/09/10 04:08:09;;;;;;;13.60;9.27;;;;;;;;;;5092590;28;20027;-75
2022/09/10 04:10:35;;;;;;;17.55;9.68;;;;;;;;;;5096639;28;20031;-76
2022/09/10 04:13:02;;;;;;;15.52;8.25;;;;;;;;;;5091869;28;20016;-76
2022/09/10 04:15:28;;;;;;;15.93;9.20;;;;;;;;;;5094123;28;20020;-74
2022/09/10 04:17:54;;;;;;;15.75;9.05;;;;;;;;;;5123301;27;20038;-76
2022/09/10 04:20:20;;;;;;;13.30;9.15;;;;;;;;;;5096370;28;20166;-79
2022/09/10 04:22:47;;;;;;;20.58;10.13;;;;;;;;;;5100016;28;20016;-75
2022/09/10 04:25:13;;;;;;;21.38;9.68;;;;;;;;;;5096724;28;20475;-74
2022/09/10 04:27:39;;;;;;;15.80;11.20;;;;;;;;;;5091662;28;20020;-74
2022/09/10 04:30:06;;;;;;;21.15;11.45;;;;;;;;;;5091488;28;20046;-74
2022/09/10 04:32:32;;;;;;;22.02;11.85;;;;;;;;;;5090333;28;20012;-76
2022/09/10 04:34:58;;;;;;;23.55;13.30;;;;;;;;;;5089650;28;20104;-78
2022/09/10 04:37:24;;;;;;;29.98;11.95;;;;;;;;;;5070884;28;20425;-74
2022/09/10 04:39:50;;;;;;;14.55;10.35;;;;;;;;;;5089675;28;20058;-75
2022/09/10 04:42:19;;;;;;;17.00;11.20;;;;;;;;;;5089569;28;20028;-75
2022/09/10 04:44:45;;;;;;;17.55;10.50;;;;;;;;;;5089975;28;20103;-75
2022/09/10 04:47:11;;;;;;;16.88;10.00;;;;;;;;;;5099484;28;20075;-76
2022/09/10 04:49:37;;;;;;;16.40;9.55;;;;;;;;;;5091366;28;20073;-75
2022/09/10 04:52:03;;;;;;;18.60;10.77;;;;;;;;;;5105779;28;20020;-74
2022/09/10 04:54:29;;;;;;;17.27;12.45;;;;;;;;;;5091615;28;20099;-74
2022/09/10 04:56:55;;;;;;;18.88;11.88;;;;;;;;;;5105681;28;20016;-75
2022/09/10 04:59:22;;;;;;;24.23;12.57;;;;;;;;;;5090216;28;20032;-75
2022/09/10 05:01:49;;;;;;;26.15;12.13;;;;;;;;;;5091424;28;20016;-75
2022/09/10 05:04:15;;;;;;;21.92;12.43;;;;;;;;;;5115144;28;20412;-75
2022/09/10 05:06:41;;;;;;;20.10;12.32;;;;;;;;;;5073505;28;20016;-75
2022/09/10 05:09:08;;;;;;;21.92;11.80;;;;;;;;;;5089833;28;20069;-75
2022/09/10 05:11:35;;;;;;;19.60;12.15;;;;;;;;;;5115165;28;20061;-74
2022/09/10 05:14:01;;;;;;;20.40;14.20;;;;;;;;;;5112640;28;20012;-76
2022/09/10 05:16:27;;;;;;;23.67;13.30;;;;;;;;;;5108472;28;20024;-75
2022/09/10 05:18:53;;;;;;;17.50;12.70;;;;;;;;;;5098940;28;20036;-75
2022/09/10 05:21:19;;;;;;;23.80;13.43;;;;;;;;;;5090509;28;20020;-74
2022/09/10 05:23:45;;;;;;;22.40;12.75;;;;;;;;;;5114834;28;20016;-75
2022/09/10 05:26:12;;;;;;;21.15;11.73;;;;;;;;;;5114618;28;20020;-75
2022/09/10 05:28:38;;;;;;;35.33;13.95;;;;;;;;;;5114876;28;20497;-74
2022/09/10 05:31:06;;;;;;;20.17;12.13;;;;;;;;;;5072993;28;20378;-75
2022/09/10 05:33:32;;;;;;;21.83;11.60;;;;;;;;;;5090804;28;20020;-75
2022/09/10 05:35:58;;;;;;;21.95;12.95;;;;;;;;;;5090622;28;20072;-74
2022/09/10 05:38:24;;;;;;;20.52;13.40;;;;;;;;;;5091482;28;20024;-77
2022/09/10 05:40:50;;;;;;;17.65;12.63;;;;;;;;;;5091360;28;20028;-75
2022/09/10 05:43:16;;;;;;;19.35;12.40;;;;;;;;;;5115116;28;20020;-74
2022/09/10 05:45:43;;;;;;;24.63;13.40;;;;;;;;;;5114523;28;20012;-74
2022/09/10 05:48:09;;;;;;;19.58;13.88;;;;;;;;;;5103752;28;20020;-79
2022/09/10 05:50:37;;;;;;;26.92;15.00;;;;;;;;;;5094641;28;20028;-74
2022/09/10 05:53:03;;;;;;;28.65;13.63;;;;;;;;;;5093091;28;20091;-74
2022/09/10 05:55:32;;;;;;;22.90;13.55;;;;;;;;;;5078916;28;20038;-75
2022/09/10 05:57:58;;;;;;;24.58;14.35;;;;;;;;;;5096903;28;20028;-75
2022/09/10 06:00:24;;;;;;;25.08;16.33;;;;;;;;;;5118318;27;20015;-75
2022/09/10 06:02:51;;;;;;;22.58;16.30;;;;;;;;;;5097238;28;20024;-74
2022/09/10 06:05:21;;;;;;;21.85;15.55;;;;;;;;;;5109492;27;20065;-75
2022/09/10 06:07:47;;;;;;;21.17;15.90;;;;;;;;;;5096980;28;20028;-74
2022/09/10 06:10:14;;;;;;;34.15;15.73;;;;;;;;;;5115405;27;20028;-74
2022/09/10 06:12:44;;;;;;;21.42;14.30;;;;;;;;;;5096930;28;20016;-74
2022/09/10 06:15:10;;;;;;;20.45;15.60;;;;;;;;;;5114808;27;20024;-75
2022/09/10 06:17:37;;;;;;;25.40;15.65;;;;;;;;;;5117973;27;20331;-75
2022/09/10 06:20:03;;;;;;;18.40;14.15;;;;;;;;;;5096993;28;20024;-75
2022/09/10 06:22:30;;;;;;;24.38;15.85;;;;;;;;;;5096413;28;20382;-74
2022/09/10 06:24:57;;;;;;;21.00;15.18;;;;;;;;;;5093964;28;20018;-75
2022/09/10 06:27:23;;;;;;;27.85;16.35;;;;;;;;;;5096045;28;20031;-74
2022/09/10 06:29:50;;;;;;;24.50;15.55;;;;;;;;;;5094074;28;20456;-74
2022/09/10 06:32:16;;;;;;;21.70;14.70;;;;;;;;;;5079595;28;20065;-75
2022/09/10 06:34:42;;;;;;;19.63;13.52;;;;;;;;;;5096169;28;20020;-74
2022/09/10 06:37:08;;;;;;;25.25;15.85;;;;;;;;;;5093109;28;20028;-75
2022/09/10 06:39:35;;;;;;;26.20;13.52;;;;;;;;;;5093428;28;20493;-75
2022/09/10 06:42:01;;;;;;;19.45;13.82;;;;;;;;;;5093166;28;20016;-74
2022/09/10 06:44:28;;;;;;;23.85;13.98;;;;;;;;;;5093278;28;20069;-75
2022/09/10 06:46:54;;;;;;;16.15;12.93;;;;;;;;;;5092579;28;20008;-75
2022/09/10 06:49:20;;;;;;;25.05;12.63;;;;;;;;;;5099881;28;20024;-78
2022/09/10 06:51:48;;;;;;;20.73;10.73;;;;;;;;;;5117734;27;20020;-74
2022/09/10 06:54:15;;;;;;;23.52;10.90;;;;;;;;;;5090528;28;20024;-74
2022/09/10 06:56:41;;;;;;;18.98;11.00;;;;;;;;;;5092808;28;20051;-75
2022/09/10 06:59:08;;;;;;;22.35;11.40;;;;;;;;;;5075478;28;20036;-74
2022/09/10 07:01:34;;;;;;;19.48;9.32;;;;;;;;;;5089748;28;20119;-74
2022/09/10 07:04:01;;;;;;;18.50;9.68;;;;;;;;;;5093358;28;20077;-75
2022/09/10 07:06:32;;;;;;;14.10;9.98;;;;;;;;;;5092218;28;20051;-75
2022/09/10 07:08:58;;;;;;;17.23;10.50;;;;;;;;;;5090058;28;20016;-75
2022/09/10 07:11:25;;;;;;;21.02;10.57;;;;;;;;;;5092408;28;20039;-76
2022/09/10 07:13:52;;;;;;;26.80;12.65;;;;;;;;;;5092939;28;20012;-75
2022/09/10 07:16:19;;;;;;;17.65;13.73;;;;;;;;;;5092754;28;20398;-74
2022/09/10 07:18:48;;;;;;;24.40;13.40;;;;;;;;;;5092315;28;20028;-74
2022/09/10 07:21:14;;;;;;;18.33;10.95;;;;;;;;;;5115156;27;20036;-75
2022/09/10 07:23:41;;;;;;;19.17;12.15;;;;;;;;;;5093167;28;20165;-77
2022/09/10 07:26:11;;;;;;;15.70;10.57;;;;;;;;;;5096231;28;20035;-74
2022/09/10 07:28:37;;;;;;;21.50;8.68;;;;;;;;;;5094573;28;20020;-75
2022/09/10 07:31:14;;;;;;;14.57;7.72;;;;;;;;;;5091593;28;20028;-75
2022/09/10 07:33:40;;;;;;;14.55;8.48;;;;;;;;;;5090871;28;20024;-75
2022/09/10 07:36:07;;;;;;;16.73;8.27;;;;;;;;;;5091399;28;20020;-75
2022/09/10 07:38:33;;;;;;;15.77;7.78;;;;;;;;;;5108252;27;20054;-75
2022/09/10 07:40:59;;;;;;;12.90;6.18;;;;;;;;;;5091423;28;20017;-75
2022/09/10 07:43:25;;;;;;;16.45;7.45;;;;;;;;;;5091718;28;20031;-75
2022/09/10 07:45:51;;;;;;;13.30;7.72;;;;;;;;;;5091026;28;20450;-75
2022/09/10 07:48:17;;;;;;;18.58;7.60;;;;;;;;;;5091241;28;20051;-75
2022/09/10 07:50:44;;;;;;;11.30;6.18;;;;;;;;;;5095518;28;20024;-76
2022/09/10 07:53:10;;;;;;;5.68;3.75;;;;;;;;;;5092070;28;20060;-75
2022/09/10 07:55:36;;;;;;;11.57;6.03;;;;;;;;;;5090899;28;20019;-75
2022/09/10 07:58:02;;;;;;;22.73;8.18;;;;;;;;;;5094875;28;20411;-75
2022/09/10 08:00:28;;;;;;;18.52;9.63;;;;;;;;;;5090564;28;20020;-75
2022/09/10 08:02:55;;;;;;;14.45;9.85;;;;;;;;;;5090735;28;20016;-74
2022/09/10 08:05:21;;;;;;;12.57;9.18;;;;;;;;;;5092233;28;20027;-76
2022/09/10 08:07:47;;;;;;;16.00;9.20;;;;;;;;;;5092656;28;20530;-76
2022/09/10 08:10:13;;;;;;;12.40;8.15;;;;;;;;;;5093203;28;20024;-75
2022/09/10 08:12:40;;;;;;;11.73;7.72;;;;;;;;;;5091909;28;20016;-75
2022/09/10 08:15:07;;;;;;;14.93;11.60;;;;;;;;;;5090176;28;20360;-76
2022/09/10 08:17:35;;;;;;;18.90;13.80;;;;;;;;;;5091813;28;20020;-75
2022/09/10 08:20:02;;;;;;;14.88;11.43;;;;;;;;;;5090614;28;20506;-76
2022/09/10 08:22:28;;;;;;;10.85;6.40;;;;;;;;;;5090647;28;20016;-74
2022/09/10 08:24:54;;;;;;;17.02;12.63;;;;;;;;;;5112292;27;20013;-74
2022/09/10 08:27:21;;;;;;;20.95;12.90;;;;;;;;;;5090889;28;20016;-74
2022/09/10 08:29:47;;;;;;;15.50;12.13;;;;;;;;;;5090711;28;21002;-76
2022/09/10 08:32:13;;;;;;;18.77;13.90;;;;;;;;;;5090731;28;20016;-74
2022/09/10 08:34:39;;;;;;;14.98;10.75;;;;;;;;;;5110811;27;20032;-76
2022/09/10 08:37:06;;;;;;;17.70;12.73;;;;;;;;;;5089951;28;20036;-76
2022/09/10 08:39:32;;;;;;;17.00;12.18;;;;;;;;;;5092941;28;20055;-75
2022/09/10 08:41:58;;;;;;;12.43;10.20;;;;;;;;;;5107515;27;20012;-74
2022/09/10 08:44:39;;;;;;;15.10;10.93;;;;;;;;;;5089914;28;20038;-74
2022/09/10 08:47:24;;;;;;;15.10;11.35;;;;;;;;;;5087462;28;20024;-75
2022/09/10 08:49:50;;;;;;;12.60;9.45;;;;;;;;;;5089975;28;20038;-75
2022/09/10 08:52:28;;;;;;;14.85;11.48;;;;;;;;;;5092106;28;20526;-75
2022/09/10 08:54:57;;;;;;;11.52;10.32;;;;;;;;;;5092412;28;20095;-75
2022/09/10 08:57:30;;;;;;;11.75;10.38;;;;;;;;;;5090334;28;20028;-75
2022/09/10 08:59:56;;;;;;;11.80;9.70;;;;;;;;;;5089743;28;20095;-75
2022/09/10 09:02:44;;;;;;;14.50;10.73;;;;;;;;;;5092531;28;20069;-75
2022/09/10 09:05:14;;;;;;;12.38;9.82;;;;;;;;;;5059006;28;20130;-75
2022/09/10 09:07:40;;;;;;;13.40;11.50;;;;;;;;;;5092082;28;20023;-77
2022/09/10 09:10:20;;;;;;;16.20;10.35;;;;;;;;;;5115885;28;20016;-79
2022/09/10 09:12:54;;;;;;;12.57;10.50;;;;;;;;;;5103362;28;20036;-75
2022/09/10 09:15:26;;;;;;;14.32;11.85;;;;;;;;;;5119138;28;20034;-78
2022/09/10 09:18:14;;;;;;;16.60;11.40;;;;;;;;;;5112788;28;20040;-76
2022/09/10 09:20:45;;;;;;;15.77;10.00;;;;;;;;;;5084292;28;20059;-76
2022/09/10 09:23:22;;;;;;;14.27;8.88;;;;;;;;;;5082543;28;20513;-79
2022/09/10 09:25:48;;;;;;;10.70;9.45;;;;;;;;;;5104309;28;20534;-77
2022/09/10 09:28:21;;;;;;;13.85;9.90;;;;;;;;;;5103874;28;20016;-77
2022/09/10 09:30:48;;;;;;;17.13;9.63;;;;;;;;;;5102527;28;20509;-73
2022/09/10 09:33:18;;;;;;;15.48;10.68;;;;;;;;;;5109413;28;20489;-75
2022/09/10 09:35:56;;;;;;;31.73;24.52;;;;;;;;;;5082003;28;20498;-78
2022/09/10 09:38:22;;;;;;;14.18;12.43;;;;;;;;;;5073865;28;20119;-79
2022/09/10 09:40:53;;;;;;;12.68;11.30;;;;;;;;;;5119288;27;20039;-78
2022/09/10 09:43:22;;;;;;;15.38;11.80;;;;;;;;;;5082088;28;20032;-82
2022/09/10 09:45:49;;;;;;;16.35;11.85;;;;;;;;;;5084808;28;20081;-80
2022/09/10 09:48:17;;;;;;;13.20;11.40;;;;;;;;;;5123151;27;20447;-77
2022/09/10 09:50:45;;;;;;;17.80;14.88;;;;;;;;;;5101007;28;20052;-78
2022/09/10 09:53:22;;;;;;;15.20;9.32;;;;;;;;;;5081861;28;20016;-78
2022/09/10 09:55:52;;;;;;;23.80;19.05;;;;;;;;;;5117454;27;20024;-77
2022/09/10 09:58:22;;;;;;;14.57;11.43;;;;;;;;;;5082586;28;20490;-77
2022/09/10 10:00:51;;;;;;;12.45;10.82;;;;;;;;;;5085322;28;20080;-77
2022/09/10 10:03:20;;;;;;;18.50;16.10;;;;;;;;;;5107554;27;20023;-76
2022/09/10 10:05:47;;;;;;;12.95;11.57;;;;;;;;;;5108047;27;20436;-77
2022/09/10 10:08:27;;;;;;;53.63;47.97;;;;;;;;;;5110695;27;20020;-76
2022/09/10 10:10:53;;;;;;;14.90;11.55;;;;;;;;;;5120332;27;20051;-81
2022/09/10 10:13:23;;;;;;;12.13;10.07;;;;;;;;;;5097322;28;20016;-79
2022/09/10 10:15:49;;;;;;;15.60;10.40;;;;;;;;;;5090023;28;20020;-80
2022/09/10 10:18:21;;;;;;;18.63;15.48;;;;;;;;;;5113119;27;20047;-79
2022/09/10 10:20:48;;;;;;;15.00;12.40;;;;;;;;;;5111187;28;20095;-80
2022/09/10 10:23:35;;;;;;;32.33;22.60;;;;;;;;;;5094726;28;20261;-78
2022/09/10 10:26:15;;;;;;;14.98;10.95;;;;;;;;;;5109820;27;20143;-79
2022/09/10 10:28:44;;;;;;;20.15;13.18;;;;;;;;;;5119385;27;20016;-80
2022/09/10 10:31:11;;;;;;;13.52;11.02;;;;;;;;;;5080849;28;20062;-77
2022/09/10 10:33:42;;;;;;;20.48;12.35;;;;;;;;;;5101926;28;20052;-77
2022/09/10 10:36:08;;;;;;;17.75;11.55;;;;;;;;;;5095854;28;21243;-79
2022/09/10 10:38:36;;;;;;;18.52;14.60;;;;;;;;;;5086304;28;20066;-79
2022/09/10 10:41:21;;;;;;;19.77;10.73;;;;;;;;;;5108737;28;20057;-80
2022/09/10 10:43:47;;;;;;;12.85;11.13;;;;;;;;;;5095569;28;20443;-78
2022/09/10 10:46:20;;;;;;;19.88;11.45;;;;;;;;;;5077901;28;20027;-79
2022/09/10 10:48:59;;;;;;;20.95;12.77;;;;;;;;;;5084102;28;20106;-78
2022/09/10 10:51:43;;;;;;;24.00;17.75;;;;;;;;;;5099147;28;20159;-78
2022/09/10 10:54:28;;;;;;;15.43;9.63;;;;;;;;;;5088120;28;20414;-79
2022/09/10 10:57:08;;;;;;;13.35;9.10;;;;;;;;;;5080044;28;20031;-80
2022/09/10 10:59:46;;;;;;;15.48;10.07;;;;;;;;;;5075271;28;20036;-78
2022/09/10 11:02:15;;;;;;;16.25;13.18;;;;;;;;;;5093541;28;20032;-80
2022/09/10 11:04:49;;;;;;;20.08;15.20;;;;;;;;;;5107432;28;20030;-78
2022/09/10 11:07:26;;;;;;;16.17;10.07;;;;;;;;;;5109086;28;20021;-78
2022/09/10 11:10:00;;;;;;;10.38;8.40;;;;;;;;;;5107843;28;20050;-79
2022/09/10 11:12:32;;;;;;;14.57;9.80;;;;;;;;;;5093055;28;20024;-77
2022/09/10 11:15:00;;;;;;;11.18;8.63;;;;;;;;;;5074785;28;20035;-79
2022/09/10 11:17:26;;;;;;;12.02;8.27;;;;;;;;;;5093824;28;20052;-78
2022/09/10 11:19:52;;;;;;;13.02;9.48;;;;;;;;;;5092564;28;20060;-77
2022/09/10 11:22:20;;;;;;;11.88;7.88;;;;;;;;;;5087097;28;20023;-77
2022/09/10 11:24:46;;;;;;;15.60;9.68;;;;;;;;;;5096371;28;20074;-76
2022/09/10 11:27:14;;;;;;;15.95;8.48;;;;;;;;;;5092190;28;20495;-76
2022/09/10 11:29:55;;;;;;;15.02;11.13;;;;;;;;;;5110398;27;20113;-77
2022/09/10 11:32:25;;;;;;;11.15;8.00;;;;;;;;;;5104738;28;20125;-76
2022/09/10 11:34:52;;;;;;;15.52;11.48;;;;;;;;;;5088215;28;20058;-77
2022/09/10 11:37:23;;;;;;;15.15;11.35;;;;;;;;;;5095458;28;20047;-76
2022/09/10 11:39:51;;;;;;;14.93;9.27;;;;;;;;;;5095204;28;20047;-75
2022/09/10 11:42:25;;;;;;;17.08;12.98;;;;;;;;;;5091172;28;20013;-77
2022/09/10 11:45:02;;;;;;;19.20;17.20;;;;;;;;;;5108227;28;20034;-75
2022/09/10 11:47:38;;;;;;;19.60;17.55;;;;;;;;;;5080331;28;20051;-75
2022/09/10 11:50:14;;;;;;;15.95;12.90;;;;;;;;;;5087964;28;20379;-77
2022/09/10 11:52:40;;;;;;;25.65;20.60;;;;;;;;;;5116991;27;20390;-74
2022/09/10 11:55:13;;;;;;;18.38;15.35;;;;;;;;;;5078627;28;20065;-74
2022/09/10 11:57:47;;;;;;;29.30;23.58;;;;;;;;;;5115950;27;20039;-77
2022/09/10 12:00:19;;;;;;;28.05;23.50;;;;;;;;;;5105240;28;20020;-79
2022/09/10 12:03:25;;;;;;;29.95;25.27;;;;;;;;;;5085883;28;20019;-76
2022/09/10 12:05:54;;;;;;;28.83;24.52;;;;;;;;;;5018112;28;20162;-78
2022/09/10 12:08:38;;;;;;;21.95;19.63;;;;;;;;;;5007219;28;20021;-77
2022/09/10 12:11:04;;;;;;;;;;;;;;;;;;5072259;28;20028;-79
2022/09/10 12:13:33;;;;;;;24.27;19.35;;;;;;;;;;5103137;28;19930;-76
2022/09/10 12:16:01;;;;;;;24.05;17.63;;;;;;;;;;5102931;28;20044;-77
2022/09/10 12:18:32;;;;;;;19.52;16.75;;;;;;;;;;5096574;28;20039;-77
2022/09/10 12:21:00;;;;;;;19.88;15.55;;;;;;;;;;5116794;27;20099;-78
2022/09/10 12:23:27;;;;;;;20.17;14.98;;;;;;;;;;5102774;28;20028;-79
2022/09/10 12:26:02;;;;;;;18.38;14.48;;;;;;;;;;5080194;28;20440;-77
2022/09/10 12:28:40;;;;;;;17.10;14.05;;;;;;;;;;5114280;27;20055;-76
2022/09/10 12:31:07;;;;;;;15.27;12.07;;;;;;;;;;5116089;27;20056;-77
2022/09/10 12:33:54;;;;;;;17.05;12.05;;;;;;;;;;5098120;28;20085;-78
2022/09/10 12:36:26;;;;;;;10.77;9.68;;;;;;;;;;5083627;28;20028;-78
2022/09/10 12:38:58;;;;;;;10.98;9.73;;;;;;;;;;5085076;28;20079;-76
2022/09/10 12:41:24;;;;;;;21.67;9.77;;;;;;;;;;5093619;28;20024;-79
2022/09/10 12:43:55;;;;;;;12.13;10.18;;;;;;;;;;5089596;28;20020;-76
2022/09/10 12:46:24;;;;;;;14.52;13.13;;;;;;;;;;5092170;28;20024;-77
2022/09/10 12:48:51;;;;;;;14.10;11.38;;;;;;;;;;5089640;28;20012;-78
2022/09/10 12:51:17;;;;;;;13.63;10.55;;;;;;;;;;5092418;28;20072;-76
2022/09/10 12:53:58;;;;;;;9.38;8.40;;;;;;;;;;5109221;28;20028;-75
2022/09/10 12:56:32;;;;;;;12.73;7.85;;;;;;;;;;5094198;28;20027;-75
2022/09/10 12:59:17;;;;;;;9.20;8.30;;;;;;;;;;5091769;28;20050;-75
2022/09/10 13:01:45;;;;;;;8.98;8.07;;;;;;;;;;5100510;28;20024;-75
2022/09/10 13:04:23;;;;;;;14.35;10.25;;;;;;;;;;5083095;28;20082;-75
2022/09/10 13:06:50;;;;;;;25.05;14.23;;;;;;;;;;5096054;28;20028;-76
2022/09/10 13:09:21;;;;;;;13.35;12.02;;;;;;;;;;5080804;28;20103;-75
2022/09/10 13:11:50;;;;;;;16.52;13.00;;;;;;;;;;5090307;28;20035;-75
2022/09/10 13:14:21;;;;;;;16.38;11.43;;;;;;;;;;5095447;28;20024;-76
2022/09/10 13:16:47;;;;;;;14.20;11.07;;;;;;;;;;5104092;28;20032;-75
2022/09/10 13:19:18;;;;;;;19.95;12.15;;;;;;;;;;5105143;28;20073;-75
2022/09/10 13:21:44;;;;;;;14.77;11.77;;;;;;;;;;5106384;28;20018;-75
2022/09/10 13:24:30;;;;;;;12.88;11.57;;;;;;;;;;5108853;28;20024;-76
2022/09/10 13:27:16;;;;;;;10.98;9.57;;;;;;;;;;5090673;28;20044;-77
2022/09/10 13:29:48;;;;;;;13.63;10.55;;;;;;;;;;5065918;28;20049;-76
2022/09/10 13:32:29;;;;;;;12.15;9.63;;;;;;;;;;5091344;28;20025;-73
2022/09/10 13:35:03;;;;;;;16.30;11.55;;;;;;;;;;5091142;28;20042;-75
2022/09/10 13:37:45;;;;;;;11.05;8.10;;;;;;;;;;5100692;28;20016;-75
2022/09/10 13:40:17;;;;;;;15.00;13.48;;;;;;;;;;5088711;28;20059;-75
2022/09/10 13:42:43;;;;;;;12.73;9.32;;;;;;;;;;5090415;28;20038;-78
2022/09/10 13:45:28;;;;;;;14.38;10.43;;;;;;;;;;5093537;28;20107;-75
2022/09/10 13:48:01;;;;;;;18.85;11.15;;;;;;;;;;5090047;28;20035;-77
2022/09/10 13:50:29;;;;;;;13.60;11.32;;;;;;;;;;5089875;28;20024;-75
2022/09/10 13:52:58;;;;;;;35.13;28.08;;;;;;;;;;5099572;28;20027;-76
2022/09/10 13:55:26;;;;;;;13.55;7.65;;;;;;;;;;5090364;28;20020;-77
2022/09/10 13:57:54;;;;;;;12.55;5.78;;;;;;;;;;5090232;28;20016;-74
2022/09/10 14:00:24;;;;;;;6.15;5.28;;;;;;;;;;5087881;28;20305;-74
2022/09/10 14:02:55;;;;;;;8.52;5.95;;;;;;;;;;5079253;28;20032;-75
2022/09/10 14:05:22;;;;;;;18.00;16.13;;;;;;;;;;5103771;28;20040;-74
2022/09/10 14:07:49;;;;;;;7.38;5.07;;;;;;;;;;5089099;28;20055;-75
2022/09/10 14:10:15;;;;;;;16.98;14.65;;;;;;;;;;5098756;28;20016;-76
2022/09/10 14:12:41;;;;;;;24.88;22.27;;;;;;;;;;5093645;28;20027;-75
2022/09/10 14:15:15;;;;;;;15.43;9.95;;;;;;;;;;5090896;28;20030;-76
2022/09/10 14:17:44;;;;;;;12.90;6.78;;;;;;;;;;5092121;28;20020;-75
2022/09/10 14:20:30;;;;;;;19.08;11.52;;;;;;;;;;5093112;28;20020;-75
2022/09/10 14:23:00;;;;;;;18.65;8.32;;;;;;;;;;5091370;28;20105;-76
2022/09/10 14:25:30;;;;;;;7.80;7.00;;;;;;;;;;5091936;28;20471;-76
2022/09/10 14:28:10;;;;;;;41.17;30.48;;;;;;;;;;5094849;28;20107;-77
2022/09/10 14:30:37;;;;;;;14.95;12.10;;;;;;;;;;5101755;28;20051;-76
2022/09/10 14:33:24;;;;;;;60.75;51.38;;;;;;;;;;5106092;28;20016;-75